Time;durP1;ratioP1;P1;durP2;ratioP2;P2;SDS_P1;SDS_P2;PMS_P1;PMS_P2;Temp;Humidity;BMP_temperature;BMP_pressure;BME280_temperature;BME280_humidity;BME280_pressure;Samples;Min_cycle;Max_cycle;Signal;HPM_P1;HPM_P2
2022/11/12 00:01:17;;;;;;;18.10;12.18;;;10.60;99.90;;;;;;5069737;28;20028;-55
2022/11/12 00:03:43;;;;;;;22.88;13.23;;;10.60;99.90;;;;;;5069569;28;20031;-55
2022/11/12 00:06:09;;;;;;;16.52;12.30;;;10.60;99.90;;;;;;5069805;28;20036;-56
2022/11/12 00:08:35;;;;;;;18.10;12.00;;;10.60;99.90;;;;;;5069152;28;20020;-56
2022/11/12 00:11:00;;;;;;;15.48;11.48;;;10.60;99.90;;;;;;5070327;28;20046;-56
2022/11/12 00:13:26;;;;;;;19.13;13.25;;;10.60;99.90;;;;;;5069055;28;20103;-56
2022/11/12 00:15:51;;;;;;;17.02;12.63;;;10.60;99.90;;;;;;5069387;28;20488;-57
2022/11/12 00:18:17;;;;;;;18.50;13.45;;;10.60;99.90;;;;;;5069299;28;20032;-53
2022/11/12 00:20:43;;;;;;;18.30;12.48;;;10.50;99.90;;;;;;5069301;28;20032;-57
2022/11/12 00:23:09;;;;;;;17.67;12.35;;;10.50;99.90;;;;;;5067481;28;20041;-55
2022/11/12 00:25:34;;;;;;;20.33;13.88;;;10.50;99.90;;;;;;5068683;28;20024;-55
2022/11/12 00:28:02;;;;;;;21.02;12.52;;;10.50;99.90;;;;;;5069895;28;20029;-55
2022/11/12 00:30:28;;;;;;;18.15;13.02;;;10.50;99.90;;;;;;5068926;28;20515;-56
2022/11/12 00:32:53;;;;;;;16.27;11.60;;;10.50;99.90;;;;;;5068864;28;20032;-54
2022/11/12 00:35:19;;;;;;;16.90;11.95;;;10.40;99.90;;;;;;5069334;28;20036;-55
2022/11/12 00:37:44;;;;;;;21.85;14.13;;;10.40;99.90;;;;;;5069514;28;20032;-56
2022/11/12 00:40:10;;;;;;;16.75;12.45;;;10.40;99.90;;;;;;5068668;28;20409;-53
2022/11/12 00:42:35;;;;;;;19.90;12.25;;;10.40;99.90;;;;;;5068297;28;20028;-55
2022/11/12 00:45:01;;;;;;;18.13;12.75;;;10.40;99.90;;;;;;5068987;28;20476;-55
2022/11/12 00:47:27;;;;;;;16.05;12.40;;;10.40;99.90;;;;;;5068340;28;20033;-56
2022/11/12 00:49:52;;;;;;;18.20;12.60;;;10.40;99.90;;;;;;5057002;28;20020;-54
2022/11/12 00:52:18;;;;;;;17.98;12.85;;;10.40;99.90;;;;;;5068650;28;20377;-55
2022/11/12 00:54:43;;;;;;;18.17;12.68;;;10.30;99.90;;;;;;5068666;28;20435;-55
2022/11/12 00:57:09;;;;;;;19.48;12.35;;;10.30;99.90;;;;;;5068962;28;20035;-56
2022/11/12 00:59:34;;;;;;;18.67;14.27;;;10.30;99.90;;;;;;5068744;28;20078;-57
2022/11/12 01:02:00;;;;;;;19.52;13.57;;;10.30;99.90;;;;;;5068025;28;20021;-55
2022/11/12 01:04:26;;;;;;;23.27;13.35;;;10.30;99.90;;;;;;5068370;28;20057;-56
2022/11/12 01:06:51;;;;;;;19.23;13.35;;;10.30;99.90;;;;;;5068005;28;20404;-56
2022/11/12 01:09:17;;;;;;;17.77;11.68;;;10.30;99.90;;;;;;5060817;28;20103;-56
2022/11/12 01:11:42;;;;;;;19.08;11.90;;;10.20;99.90;;;;;;5068395;28;20058;-56
2022/11/12 01:14:09;;;;;;;21.45;13.45;;;10.30;99.90;;;;;;5068694;28;20024;-55
2022/11/12 01:16:38;;;;;;;20.17;12.50;;;10.30;99.90;;;;;;5067529;28;20104;-55
2022/11/12 01:19:07;;;;;;;19.65;13.07;;;10.30;99.90;;;;;;5068391;28;20024;-56
2022/11/12 01:21:35;;;;;;;19.60;12.30;;;10.30;99.90;;;;;;5068311;28;20127;-55
2022/11/12 01:24:01;;;;;;;16.38;12.05;;;10.20;99.90;;;;;;5068248;28;20423;-56
2022/11/12 01:26:27;;;;;;;16.77;12.25;;;10.20;99.90;;;;;;5068584;28;20089;-55
2022/11/12 01:28:54;;;;;;;17.75;11.45;;;10.20;99.90;;;;;;5067971;28;20029;-57
2022/11/12 01:31:21;;;;;;;16.65;11.82;;;10.20;99.90;;;;;;5067921;28;20024;-56
2022/11/12 01:33:49;;;;;;;16.35;11.02;;;10.20;99.90;;;;;;5067262;28;20440;-56
2022/11/12 01:36:16;;;;;;;16.42;11.77;;;10.20;99.90;;;;;;5063207;28;20505;-55
2022/11/12 01:38:44;;;;;;;15.95;11.38;;;10.20;99.90;;;;;;5072121;28;20067;-56
2022/11/12 01:41:13;;;;;;;14.65;10.27;;;10.20;99.90;;;;;;5068392;28;20068;-58
2022/11/12 01:43:38;;;;;;;13.40;9.93;;;10.20;99.90;;;;;;5069421;28;20039;-56
2022/11/12 01:46:12;;;;;;;18.23;11.00;;;10.20;99.90;;;;;;5069918;28;20024;-56
2022/11/12 01:48:54;;;;;;;16.60;11.90;;;10.10;99.90;;;;;;5071872;28;20027;-56
2022/11/12 01:51:23;;;;;;;18.17;11.35;;;10.20;99.90;;;;;;5071263;28;20028;-56
2022/11/12 01:53:52;;;;;;;13.23;9.88;;;10.10;99.90;;;;;;5072268;28;20070;-55
2022/11/12 01:56:20;;;;;;;14.02;10.52;;;10.10;99.90;;;;;;5072024;28;20025;-54
2022/11/12 01:58:50;;;;;;;13.95;10.20;;;10.10;99.90;;;;;;5066752;28;20028;-52
2022/11/12 02:01:15;;;;;;;13.07;10.25;;;10.10;99.90;;;;;;5066878;28;20020;-54
2022/11/12 02:03:41;;;;;;;13.32;9.20;;;10.10;99.90;;;;;;5062955;28;20039;-54
2022/11/12 02:06:13;;;;;;;11.80;9.90;;;10.10;99.90;;;;;;5071861;28;20021;-55
2022/11/12 02:08:39;;;;;;;12.07;9.15;;;10.00;99.90;;;;;;5068355;28;20035;-55
2022/11/12 02:11:10;;;;;;;16.35;9.75;;;10.10;99.90;;;;;;5072255;28;20469;-55
2022/11/12 02:16:20;;;;;;;11.88;9.27;;;10.00;99.90;;;;;;5064697;28;20450;-53
2022/11/12 02:18:45;;;;;;;12.77;10.35;;;9.90;99.90;;;;;;5070932;28;20020;-55
2022/11/12 02:21:11;;;;;;;13.20;9.02;;;9.90;99.90;;;;;;5066937;28;20078;-54
2022/11/12 02:23:37;;;;;;;11.85;8.52;;;9.90;99.90;;;;;;5069656;28;20092;-56
2022/11/12 02:26:03;;;;;;;12.10;8.82;;;9.80;99.90;;;;;;5066253;28;20441;-54
2022/11/12 02:28:31;;;;;;;13.43;9.68;;;9.80;99.90;;;;;;5065449;28;20031;-56
2022/11/12 02:30:56;;;;;;;11.35;8.73;;;9.70;99.90;;;;;;5061663;28;20408;-54
2022/11/12 02:33:22;;;;;;;10.95;8.85;;;9.70;99.90;;;;;;5070557;28;20039;-56
2022/11/12 02:35:47;;;;;;;13.15;9.30;;;9.60;99.90;;;;;;5070955;28;20040;-55
2022/11/12 02:38:13;;;;;;;12.70;8.82;;;9.50;99.90;;;;;;5071259;28;20480;-55
2022/11/12 02:40:39;;;;;;;9.35;7.15;;;9.50;99.90;;;;;;5071263;28;20112;-56
2022/11/12 02:43:04;;;;;;;11.48;8.10;;;9.50;99.90;;;;;;5071005;28;20409;-55
2022/11/12 02:45:31;;;;;;;9.30;7.90;;;9.50;99.90;;;;;;5070759;28;20103;-53
2022/11/12 02:47:56;;;;;;;15.90;8.70;;;9.40;99.90;;;;;;5061163;28;20028;-52
2022/11/12 02:50:22;;;;;;;12.73;8.52;;;9.40;99.90;;;;;;5055565;28;20070;-53
2022/11/12 02:52:48;;;;;;;12.40;8.38;;;9.30;99.90;;;;;;5070550;28;20024;-56
2022/11/12 02:55:13;;;;;;;12.52;8.35;;;9.30;99.90;;;;;;5070608;28;20035;-55
2022/11/12 02:57:39;;;;;;;15.35;8.43;;;9.20;99.90;;;;;;5071106;28;20032;-55
2022/11/12 03:00:08;;;;;;;11.30;7.30;;;9.10;99.90;;;;;;5062583;28;20048;-56
2022/11/12 03:02:41;;;;;;;13.27;9.25;;;9.10;99.90;;;;;;5070622;28;20035;-53
2022/11/12 03:05:10;;;;;;;13.10;9.13;;;9.00;99.90;;;;;;5070591;28;20027;-55
2022/11/12 03:07:36;;;;;;;12.75;9.07;;;9.00;99.90;;;;;;5070970;28;20019;-55
2022/11/12 03:10:02;;;;;;;10.68;8.30;;;8.90;99.90;;;;;;5070847;28;20112;-56
2022/11/12 03:12:30;;;;;;;12.48;7.88;;;8.90;99.90;;;;;;5070564;28;20021;-55
2022/11/12 03:14:56;;;;;;;13.43;8.80;;;8.90;99.90;;;;;;5070294;28;20033;-56
2022/11/12 03:17:21;;;;;;;11.70;8.02;;;8.80;99.90;;;;;;5070714;28;20048;-56
2022/11/12 03:19:47;;;;;;;11.40;8.48;;;8.70;99.90;;;;;;5069236;28;20097;-54
2022/11/12 03:22:12;;;;;;;10.60;7.75;;;8.70;99.90;;;;;;5070630;28;20009;-52
2022/11/12 03:24:38;;;;;;;14.52;9.07;;;8.60;99.90;;;;;;5068890;28;20500;-53
2022/11/12 03:27:03;;;;;;;11.20;8.18;;;8.60;99.90;;;;;;5069329;28;20025;-53
2022/11/12 03:29:29;;;;;;;12.38;8.63;;;8.50;99.90;;;;;;5066718;28;20025;-54
2022/11/12 03:31:54;;;;;;;12.50;9.25;;;8.50;99.90;;;;;;5069244;28;20039;-55
2022/11/12 03:34:20;;;;;;;12.55;8.85;;;8.40;99.90;;;;;;5065854;28;20133;-53
2022/11/12 03:36:45;;;;;;;13.30;9.13;;;8.40;99.90;;;;;;5070334;28;20104;-53
2022/11/12 03:39:11;;;;;;;14.60;8.93;;;8.30;99.90;;;;;;5069752;28;20472;-55
2022/11/12 03:41:36;;;;;;;15.40;9.27;;;8.30;99.90;;;;;;5069316;28;20453;-53
2022/11/12 03:44:02;;;;;;;12.65;9.65;;;8.30;99.90;;;;;;5070066;28;20032;-56
2022/11/12 03:46:27;;;;;;;13.70;9.20;;;8.30;99.90;;;;;;5059614;28;20029;-54
2022/11/12 03:48:53;;;;;;;13.13;9.25;;;8.20;99.90;;;;;;5069674;28;20048;-55
2022/11/12 03:51:20;;;;;;;12.80;9.13;;;8.20;99.90;;;;;;5069580;28;20052;-55
2022/11/12 03:53:45;;;;;;;14.00;10.13;;;8.20;99.90;;;;;;5054710;28;20391;-53
2022/11/12 03:56:11;;;;;;;12.82;9.43;;;8.10;99.90;;;;;;5059266;28;20062;-56
2022/11/12 03:58:36;;;;;;;11.60;8.68;;;8.10;99.90;;;;;;5066592;28;20024;-54
2022/11/12 04:01:02;;;;;;;13.15;10.10;;;8.00;99.90;;;;;;5069800;28;20161;-56
2022/11/12 04:03:28;;;;;;;14.73;10.82;;;8.00;99.90;;;;;;5066809;28;20032;-54
2022/11/12 04:08:38;;;;;;;14.15;10.00;;;7.90;99.90;;;;;;5069519;28;20035;-54
2022/11/12 04:11:07;;;;;;;14.95;9.38;;;7.80;99.90;;;;;;5067694;28;20025;-55
2022/11/12 04:13:33;;;;;;;13.85;9.77;;;7.80;99.90;;;;;;5068886;28;20107;-54
2022/11/12 04:21:55;;;;;;;12.75;9.50;;;7.70;99.90;;;;;;5069080;28;20038;-53
2022/11/12 04:27:13;;;;;;;12.80;9.70;;;7.60;99.90;;;;;;5068725;28;20166;-56
2022/11/12 04:32:24;;;;;;;13.82;9.52;;;7.60;99.90;;;;;;5064712;28;20031;-56
2022/11/12 04:34:50;;;;;;;14.18;9.73;;;7.50;99.90;;;;;;5068713;28;20016;-56
2022/11/12 04:37:16;;;;;;;11.82;10.32;;;7.40;99.90;;;;;;5069533;28;20021;-54
2022/11/12 04:39:42;;;;;;;12.98;10.18;;;7.40;99.90;;;;;;5069004;28;20028;-52
2022/11/12 04:44:58;;;;;;;12.75;10.85;;;7.30;99.90;;;;;;5066047;28;20431;-54
2022/11/12 04:47:34;;;;;;;17.77;11.38;;;7.30;99.90;;;;;;5069340;28;20028;-56
2022/11/12 04:50:01;;;;;;;13.52;10.02;;;7.20;99.90;;;;;;5067289;28;20024;-56
2022/11/12 04:52:27;;;;;;;11.82;9.63;;;7.10;99.90;;;;;;5068070;28;20033;-55
2022/11/12 04:54:53;;;;;;;14.43;10.57;;;7.10;99.90;;;;;;5068722;28;20016;-52
2022/11/12 04:57:18;;;;;;;12.30;10.60;;;7.10;99.90;;;;;;5069219;28;20033;-56
2022/11/12 04:59:45;;;;;;;15.75;10.75;;;7.10;99.90;;;;;;5068899;28;20030;-55
2022/11/12 05:02:10;;;;;;;15.80;10.75;;;7.00;99.90;;;;;;5068381;28;20033;-56
2022/11/12 05:04:36;;;;;;;13.93;10.07;;;7.00;99.90;;;;;;5068667;28;20044;-53
2022/11/12 05:07:01;;;;;;;18.65;12.27;;;7.00;99.90;;;;;;5068686;28;20028;-53
2022/11/12 05:09:28;;;;;;;13.93;9.18;;;7.00;99.90;;;;;;5068724;28;20028;-56
2022/11/12 05:11:54;;;;;;;13.82;10.40;;;6.90;99.90;;;;;;5070787;28;20112;-57
2022/11/12 05:14:20;;;;;;;11.05;9.75;;;6.80;99.90;;;;;;5068871;28;20059;-54
2022/11/12 05:16:46;;;;;;;13.40;10.35;;;6.80;99.90;;;;;;5068723;28;20465;-56
2022/11/12 05:19:12;;;;;;;14.68;10.80;;;6.80;99.90;;;;;;5068328;28;20104;-56
2022/11/12 05:24:22;;;;;;;16.70;10.68;;;6.80;99.90;;;;;;5061447;28;20066;-53
2022/11/12 05:26:48;;;;;;;14.18;10.82;;;6.70;99.90;;;;;;5060226;28;20033;-52
2022/11/12 05:29:14;;;;;;;14.20;10.63;;;6.70;99.90;;;;;;5068395;28;20045;-54
2022/11/12 05:31:39;;;;;;;15.27;10.43;;;6.70;99.90;;;;;;5074114;28;20012;-55
2022/11/12 05:34:05;;;;;;;14.35;10.63;;;6.60;99.90;;;;;;5069969;28;20043;-54
2022/11/12 05:36:31;;;;;;;14.30;11.02;;;6.60;99.90;;;;;;5068708;28;20029;-55
2022/11/12 05:38:56;;;;;;;15.00;11.27;;;6.50;99.90;;;;;;5063822;28;20508;-55
2022/11/12 05:41:22;;;;;;;17.13;11.20;;;6.50;99.90;;;;;;5068272;28;20086;-53
2022/11/12 05:43:47;;;;;;;13.30;10.90;;;6.50;99.90;;;;;;5068052;28;20492;-56
2022/11/12 05:46:13;;;;;;;12.07;10.00;;;6.50;99.90;;;;;;5064406;28;20031;-56
2022/11/12 05:48:38;;;;;;;19.08;11.88;;;6.40;99.90;;;;;;5068510;28;20111;-55
2022/11/12 05:51:04;;;;;;;14.95;11.32;;;6.30;99.90;;;;;;5068436;28;20131;-54
2022/11/12 05:53:29;;;;;;;18.17;11.15;;;6.30;99.90;;;;;;5068236;28;20039;-54
2022/11/12 05:56:05;;;;;;;13.15;10.52;;;6.30;99.90;;;;;;5068334;28;20031;-55
2022/11/12 05:58:31;;;;;;;14.88;11.07;;;6.30;99.90;;;;;;5068342;28;20021;-55
2022/11/12 06:00:58;;;;;;;15.23;11.57;;;6.20;99.90;;;;;;5068408;28;20025;-55
2022/11/12 06:03:24;;;;;;;16.27;11.85;;;6.20;99.90;;;;;;5067830;28;20392;-54
2022/11/12 06:05:50;;;;;;;18.85;12.07;;;6.20;99.90;;;;;;5068060;28;20023;-53
2022/11/12 06:08:15;;;;;;;15.93;11.32;;;6.10;99.90;;;;;;5068278;28;20027;-55
2022/11/12 06:10:41;;;;;;;14.07;11.65;;;6.10;99.90;;;;;;5068409;28;20021;-55
2022/11/12 06:13:07;;;;;;;15.30;10.75;;;6.10;99.90;;;;;;5068115;28;20028;-55
2022/11/12 06:15:32;;;;;;;15.25;11.00;;;6.00;99.90;;;;;;5068295;28;20120;-51
2022/11/12 06:17:58;;;;;;;15.68;10.82;;;6.00;99.90;;;;;;5067244;28;20162;-53
2022/11/12 06:20:24;;;;;;;15.55;11.55;;;6.00;99.90;;;;;;5068154;28;20056;-52
2022/11/12 06:22:49;;;;;;;12.85;10.75;;;6.00;99.90;;;;;;5068360;28;20029;-56
2022/11/12 06:25:16;;;;;;;16.10;11.52;;;5.90;99.90;;;;;;5071730;28;20512;-56
2022/11/12 06:27:42;;;;;;;15.57;11.63;;;5.90;99.90;;;;;;5071604;28;20020;-57
2022/11/12 06:30:08;;;;;;;17.33;12.52;;;5.90;99.90;;;;;;5071704;28;20024;-56
2022/11/12 06:32:34;;;;;;;11.52;10.07;;;5.80;99.90;;;;;;5071590;28;20025;-56
2022/11/12 06:34:59;;;;;;;17.67;12.55;;;5.80;99.90;;;;;;5071112;28;20664;-56
2022/11/12 06:37:25;;;;;;;18.10;12.23;;;5.80;99.90;;;;;;5066451;28;20021;-54
2022/11/12 06:39:51;;;;;;;15.77;11.85;;;5.80;99.90;;;;;;5068877;28;20024;-54
2022/11/12 06:42:16;;;;;;;14.00;11.20;;;5.70;99.90;;;;;;5070629;28;20040;-54
2022/11/12 06:44:42;;;;;;;18.40;12.23;;;5.80;99.90;;;;;;5071408;28;20030;-54
2022/11/12 06:47:08;;;;;;;16.27;12.25;;;5.70;99.90;;;;;;5067574;28;20074;-57
2022/11/12 06:49:34;;;;;;;17.00;12.25;;;5.70;99.90;;;;;;5069369;28;20025;-55
2022/11/12 06:51:59;;;;;;;17.05;11.45;;;5.70;99.90;;;;;;5070888;28;20032;-55
2022/11/12 06:54:25;;;;;;;17.90;12.30;;;5.60;99.90;;;;;;5071202;28;20087;-54
2022/11/12 06:56:51;;;;;;;12.90;10.45;;;5.60;99.90;;;;;;5070320;28;20396;-55
2022/11/12 06:59:16;;;;;;;13.38;10.98;;;5.60;99.90;;;;;;5070228;28;20032;-53
2022/11/12 07:01:42;;;;;;;15.60;12.18;;;5.60;99.90;;;;;;5070940;28;20064;-54
2022/11/12 07:04:09;;;;;;;15.07;11.48;;;5.60;99.90;;;;;;5070823;28;20024;-52
2022/11/12 07:06:34;;;;;;;15.88;12.55;;;5.60;99.90;;;;;;5071299;28;20017;-55
2022/11/12 07:09:00;;;;;;;17.83;11.48;;;5.50;99.90;;;;;;5061406;28;20059;-55
2022/11/12 07:11:25;;;;;;;16.05;12.30;;;5.50;99.90;;;;;;5070473;28;20044;-56
2022/11/12 07:13:51;;;;;;;16.13;11.40;;;5.50;99.90;;;;;;5070165;28;20025;-55
2022/11/12 07:16:17;;;;;;;15.13;11.60;;;5.50;99.90;;;;;;5070742;28;20385;-55
2022/11/12 07:18:44;;;;;;;18.63;12.02;;;5.50;99.90;;;;;;5056806;28;20036;-56
2022/11/12 07:21:12;;;;;;;16.85;11.65;;;5.50;99.90;;;;;;5070483;28;20139;-55
2022/11/12 07:23:38;;;;;;;17.63;11.63;;;5.50;99.90;;;;;;5070237;28;20033;-54
2022/11/12 07:26:06;;;;;;;17.88;12.85;;;5.50;99.90;;;;;;5060745;28;20136;-56
2022/11/12 07:28:32;;;;;;;18.63;12.68;;;5.50;99.90;;;;;;5070813;28;20412;-55
2022/11/12 07:31:00;;;;;;;15.93;11.52;;;5.50;99.90;;;;;;5061010;28;20025;-55
2022/11/12 07:33:26;;;;;;;15.93;11.07;;;5.50;99.90;;;;;;5069300;28;20032;-54
2022/11/12 07:36:00;;;;;;;15.48;10.95;;;5.50;99.90;;;;;;5070433;28;20033;-56
2022/11/12 07:38:27;;;;;;;15.30;11.50;;;5.50;99.90;;;;;;5070114;28;20515;-56
2022/11/12 07:41:01;;;;;;;16.45;11.07;;;5.50;99.90;;;;;;5072541;28;20039;-55
2022/11/12 07:43:29;;;;;;;13.32;10.48;;;5.60;99.90;;;;;;5056662;28;20467;-55
2022/11/12 07:45:59;;;;;;;12.30;10.82;;;5.60;99.90;;;;;;5072545;28;20033;-55
2022/11/12 07:48:25;;;;;;;15.82;10.88;;;5.60;99.90;;;;;;5069810;28;20040;-54
2022/11/12 07:50:50;;;;;;;16.02;11.77;;;5.60;99.90;;;;;;5063434;28;20020;-56
2022/11/12 07:53:16;;;;;;;14.68;11.13;;;5.60;99.90;;;;;;5069707;28;20036;-56
2022/11/12 07:55:41;;;;;;;14.20;11.90;;;5.60;99.90;;;;;;5070118;28;20472;-55
2022/11/12 07:58:07;;;;;;;15.20;10.95;;;5.60;99.90;;;;;;5069771;28;20040;-56
2022/11/12 08:00:33;;;;;;;14.50;11.43;;;5.70;99.90;;;;;;5070262;28;20029;-55
2022/11/12 08:03:00;;;;;;;14.48;11.13;;;5.70;99.90;;;;;;5069581;28;20028;-55
2022/11/12 08:05:26;;;;;;;14.85;11.05;;;5.70;99.90;;;;;;5069774;28;20496;-55
2022/11/12 08:07:54;;;;;;;18.15;12.38;;;5.70;99.90;;;;;;5070106;28;20123;-52
2022/11/12 08:10:20;;;;;;;15.32;11.70;;;5.70;99.90;;;;;;5069736;28;20442;-52
2022/11/12 08:12:45;;;;;;;16.48;12.05;;;5.80;99.90;;;;;;5068358;28;20028;-55
2022/11/12 08:15:11;;;;;;;16.58;12.70;;;5.90;99.90;;;;;;5069519;28;20033;-55
2022/11/12 08:17:39;;;;;;;21.33;13.25;;;5.90;99.90;;;;;;5069597;28;20519;-56
2022/11/12 08:20:06;;;;;;;18.48;12.60;;;6.00;99.90;;;;;;5069607;28;20035;-54
2022/11/12 08:22:31;;;;;;;17.13;13.60;;;6.00;99.90;;;;;;5069184;28;20025;-54
2022/11/12 08:24:57;;;;;;;18.33;13.90;;;6.10;99.90;;;;;;5064673;28;20507;-56
2022/11/12 08:27:23;;;;;;;18.42;14.15;;;6.10;99.90;;;;;;5069306;28;20017;-55
2022/11/12 08:29:48;;;;;;;20.00;14.15;;;6.20;99.90;;;;;;5069056;28;20035;-54
2022/11/12 08:32:14;;;;;;;17.25;14.02;;;6.20;99.90;;;;;;5060645;28;20056;-54
2022/11/12 08:34:42;;;;;;;23.10;15.85;;;6.30;99.90;;;;;;5066282;28;20078;-55
2022/11/12 08:37:08;;;;;;;23.35;15.60;;;6.40;99.90;;;;;;5069420;28;20031;-55
2022/11/12 08:39:33;;;;;;;18.02;14.23;;;6.40;99.90;;;;;;5071493;28;20032;-55
2022/11/12 08:41:59;;;;;;;20.60;14.02;;;6.50;99.90;;;;;;5068854;28;20040;-55
2022/11/12 08:44:24;;;;;;;18.70;14.85;;;6.60;99.90;;;;;;5067439;28;20060;-55
2022/11/12 08:46:50;;;;;;;19.75;15.20;;;6.60;99.90;;;;;;5068758;28;20473;-55
2022/11/12 08:49:15;;;;;;;22.50;15.13;;;6.70;99.90;;;;;;5068668;28;20618;-55
2022/11/12 08:51:41;;;;;;;21.58;14.05;;;6.80;99.90;;;;;;5068720;28;20028;-53
2022/11/12 08:54:06;;;;;;;17.17;14.00;;;6.80;99.90;;;;;;5068640;28;20028;-54
2022/11/12 08:56:32;;;;;;;20.80;14.38;;;6.90;99.90;;;;;;5068778;28;20039;-56
2022/11/12 08:58:58;;;;;;;21.23;16.17;;;7.00;99.90;;;;;;5068156;28;20029;-53
2022/11/12 09:01:24;;;;;;;26.95;15.98;;;7.10;99.90;;;;;;5069404;28;21612;-55
2022/11/12 09:03:50;;;;;;;20.67;16.35;;;7.20;99.90;;;;;;5068486;28;20036;-55
2022/11/12 09:06:16;;;;;;;20.58;14.85;;;7.30;99.90;;;;;;5053105;28;20028;-54
2022/11/12 09:08:41;;;;;;;24.25;14.77;;;7.30;99.90;;;;;;5068827;28;20012;-52
2022/11/12 09:11:07;;;;;;;21.25;15.10;;;7.40;99.90;;;;;;5068407;28;20059;-54
2022/11/12 09:13:33;;;;;;;21.65;15.68;;;7.50;99.90;;;;;;5067672;28;20107;-56
2022/11/12 09:16:00;;;;;;;19.45;15.15;;;7.50;99.90;;;;;;5068868;28;20104;-52
2022/11/12 09:18:26;;;;;;;18.02;14.77;;;7.60;99.90;;;;;;5068206;28;20033;-53
2022/11/12 09:20:51;;;;;;;17.88;15.27;;;7.80;99.90;;;;;;5068990;28;20025;-55
2022/11/12 09:23:17;;;;;;;18.50;14.68;;;7.80;99.90;;;;;;5068779;28;20404;-54
2022/11/12 09:25:43;;;;;;;20.27;15.40;;;7.90;99.90;;;;;;5068965;28;20013;-55
2022/11/12 09:28:15;;;;;;;19.85;14.40;;;8.00;99.90;;;;;;5068451;28;20724;-57
2022/11/12 09:30:45;;;;;;;18.35;13.73;;;8.10;99.90;;;;;;5068906;28;20096;-53
2022/11/12 09:33:11;;;;;;;19.38;14.55;;;8.20;99.90;;;;;;5067887;28;20055;-56
2022/11/12 09:35:37;;;;;;;19.63;14.82;;;8.20;99.90;;;;;;5069048;28;20046;-56
2022/11/12 09:38:03;;;;;;;18.10;13.52;;;8.30;99.90;;;;;;5068616;28;20043;-57
2022/11/12 09:40:39;;;;;;;19.92;15.68;;;8.40;99.90;;;;;;5068338;28;20035;-57
2022/11/12 09:43:16;;;;;;;;;;;8.50;99.90;;;;;;5068272;28;20094;-54
2022/11/12 09:45:41;;;;;;;17.17;12.90;;;8.60;99.90;;;;;;5068673;28;19920;-56
2022/11/12 09:48:10;;;;;;;17.55;13.48;;;8.70;99.90;;;;;;5068294;28;20032;-57
2022/11/12 09:50:45;;;;;;;19.52;14.15;;;8.80;99.90;;;;;;5068501;28;20048;-57
2022/11/12 09:53:21;;;;;;;16.23;12.95;;;8.80;99.90;;;;;;5067947;28;20078;-54
2022/11/12 09:55:48;;;;;;;;;;;8.90;99.90;;;;;;5068989;28;20108;-56
2022/11/12 09:58:15;;;;;;;;;;;9.00;99.90;;;;;;5071146;28;20007;-56
2022/11/12 10:00:54;;;;;;;16.38;11.70;;;9.10;99.90;;;;;;5072864;28;19908;-57
2022/11/12 10:03:37;;;;;;;15.27;12.85;;;9.20;99.90;;;;;;5067050;28;20036;-54
2022/11/12 10:06:15;;;;;;;15.50;12.13;;;9.20;99.90;;;;;;5073622;28;20074;-55
2022/11/12 10:08:47;;;;;;;17.30;12.70;;;9.30;99.90;;;;;;5072031;28;20055;-56
2022/11/12 10:11:26;;;;;;;20.92;14.50;;;9.40;99.90;;;;;;5072482;28;20140;-55
2022/11/12 10:14:01;;;;;;;21.50;13.05;;;9.40;99.90;;;;;;5072186;28;20488;-58
2022/11/12 10:16:54;;;;;;;20.77;13.00;;;9.50;99.90;;;;;;5071955;28;20032;-58
2022/11/12 10:19:22;;;;;;;17.63;13.32;;;9.60;99.90;;;;;;5068586;28;20376;-56
2022/11/12 10:22:18;;;;;;;16.83;12.57;;;9.70;99.90;;;;;;5071382;28;20067;-58
2022/11/12 10:24:45;;;;;;;19.92;12.45;;;9.70;99.90;;;;;;5067763;28;20024;-56
2022/11/12 10:27:21;;;;;;;16.90;12.07;;;9.80;99.90;;;;;;5071381;28;20043;-52
2022/11/12 10:29:56;;;;;;;14.82;12.02;;;9.80;99.90;;;;;;5071513;28;20074;-57
2022/11/12 10:32:22;;;;;;;15.65;11.70;;;9.90;99.90;;;;;;5064017;28;20484;-55
2022/11/12 10:34:47;;;;;;;15.57;11.77;;;10.00;99.90;;;;;;5071493;28;20029;-58
2022/11/12 10:37:24;;;;;;;14.90;11.90;;;10.10;99.90;;;;;;5070581;28;20040;-57
2022/11/12 10:39:50;;;;;;;16.95;11.20;;;10.20;99.90;;;;;;5071393;28;20530;-54
2022/11/12 10:42:17;;;;;;;15.35;10.93;;;10.20;99.90;;;;;;5071118;28;20036;-55
2022/11/12 10:44:44;;;;;;;16.38;11.20;;;10.30;99.90;;;;;;5070409;28;20021;-56
2022/11/12 10:47:23;;;;;;;14.80;11.73;;;10.40;99.90;;;;;;5061599;28;20035;-56
2022/11/12 10:50:01;;;;;;;15.75;11.23;;;10.40;99.90;;;;;;5072631;28;20021;-57
2022/11/12 10:52:27;;;;;;;13.48;11.57;;;10.50;99.90;;;;;;5070694;28;20028;-54
2022/11/12 10:55:14;;;;;;;12.48;11.20;;;10.50;99.90;;;;;;5071251;28;20143;-53
2022/11/12 10:57:40;;;;;;;13.55;11.00;;;10.50;99.90;;;;;;5071472;28;20161;-56
2022/11/12 11:00:11;;;;;;;16.63;11.60;;;10.60;99.90;;;;;;5070349;28;20125;-57
2022/11/12 11:02:45;;;;;;;14.32;11.35;;;10.60;99.90;;;;;;5064517;28;20032;-55
2022/11/12 11:05:32;;;;;;;16.90;10.75;;;10.60;99.90;;;;;;5070905;28;20037;-54
2022/11/12 11:07:57;;;;;;;13.63;10.45;;;10.60;99.90;;;;;;5070602;28;20112;-56
2022/11/12 11:10:34;;;;;;;13.98;10.13;;;10.70;99.90;;;;;;5070711;28;20103;-57
2022/11/12 11:13:20;;;;;;;16.67;9.88;;;10.70;99.90;;;;;;5069564;28;20035;-58
2022/11/12 11:16:04;;;;;;;13.63;11.45;;;10.70;99.90;;;;;;5070537;28;20407;-57
2022/11/12 11:18:33;;;;;;;13.27;10.93;;;10.70;99.90;;;;;;5065270;28;20489;-56
2022/11/12 11:21:28;;;;;;;11.80;9.93;;;10.80;99.90;;;;;;5071759;28;20029;-56
2022/11/12 11:24:11;;;;;;;13.43;10.10;;;10.80;99.90;;;;;;5070242;28;20025;-57
2022/11/12 11:26:44;;;;;;;15.60;10.40;;;10.80;99.90;;;;;;5070637;28;20032;-56
2022/11/12 11:29:28;;;;;;;12.15;10.15;;;10.80;99.90;;;;;;5070402;28;20141;-57
2022/11/12 11:32:06;;;;;;;13.98;10.18;;;10.90;99.90;;;;;;5068500;28;20145;-58
2022/11/12 11:34:40;;;;;;;13.88;9.05;;;10.90;99.90;;;;;;5071020;28;20560;-56
2022/11/12 11:37:24;;;;;;;13.23;10.02;;;10.90;99.90;;;;;;5070437;28;20028;-55
2022/11/12 11:40:02;;;;;;;17.42;9.63;;;10.90;99.90;;;;;;5070135;28;20027;-57
2022/11/12 11:42:49;;;;;;;12.20;9.88;;;11.00;99.90;;;;;;5069987;28;20024;-56
2022/11/12 11:45:24;;;;;;;12.95;9.98;;;11.00;99.90;;;;;;5062092;28;20110;-56
2022/11/12 11:47:55;;;;;;;12.00;9.05;;;11.00;99.90;;;;;;5070270;28;20101;-57
2022/11/12 11:50:48;;;;;;;10.80;9.23;;;11.00;99.90;;;;;;5063130;28;20032;-56
2022/11/12 11:53:25;;;;;;;12.32;8.52;;;11.10;99.90;;;;;;5048786;28;20057;-56
2022/11/12 11:55:59;;;;;;;12.45;8.05;;;11.10;99.90;;;;;;5070226;28;20031;-54
2022/11/12 11:58:28;;;;;;;11.48;8.98;;;11.10;99.90;;;;;;5070060;28;20116;-54
2022/11/12 12:01:12;;;;;;;12.55;8.65;;;11.20;99.90;;;;;;5069760;28;20045;-58
2022/11/12 12:03:52;;;;;;;12.98;8.48;;;11.20;99.90;;;;;;5069935;28;20388;-57
2022/11/12 12:06:25;;;;;;;10.85;8.02;;;11.20;99.90;;;;;;5067827;28;20534;-57
2022/11/12 12:09:06;;;;;;;12.30;8.75;;;11.20;99.90;;;;;;5069711;28;20021;-58
2022/11/12 12:11:41;;;;;;;10.32;7.97;;;11.30;99.90;;;;;;5069949;28;20044;-57
2022/11/12 12:14:47;;;;;;;9.40;6.93;;;11.30;99.90;;;;;;5069290;28;20017;-58
2022/11/12 12:17:13;;;;;;;9.82;7.18;;;11.30;99.90;;;;;;5040471;28;20178;-57
2022/11/12 12:20:33;;;;;;;10.98;7.80;;;11.40;99.90;;;;;;5069089;28;20104;-58
2022/11/12 12:23:03;;;;;;;9.70;7.10;;;11.40;99.90;;;;;;4995221;28;20700;-58
2022/11/12 12:25:36;;;;;;;8.98;7.47;;;11.50;99.90;;;;;;5054393;28;20480;-57
2022/11/12 12:28:11;;;;;;;10.27;5.95;;;11.50;99.90;;;;;;5067107;28;20049;-54
2022/11/12 12:30:43;;;;;;;8.15;6.65;;;11.50;99.90;;;;;;5070069;28;20551;-55
2022/11/12 12:33:38;;;;;;;10.60;8.30;;;11.50;99.90;;;;;;5069339;28;20035;-57
2022/11/12 12:36:06;;;;;;;10.40;6.60;;;11.40;99.90;;;;;;5069391;28;20029;-56
2022/11/12 12:38:44;;;;;;;9.88;6.78;;;11.40;99.90;;;;;;5069321;28;20083;-57
2022/11/12 12:41:26;;;;;;;9.50;6.28;;;11.40;99.90;;;;;;5068981;28;20503;-59
2022/11/12 12:43:56;;;;;;;8.80;6.65;;;11.30;99.90;;;;;;5069467;28;20036;-57
2022/11/12 12:46:26;;;;;;;8.68;5.75;;;11.30;99.90;;;;;;5069057;28;20095;-57
2022/11/12 12:48:54;;;;;;;7.68;6.38;;;11.20;99.90;;;;;;5069640;28;20024;-55
2022/11/12 12:51:21;;;;;;;8.63;6.78;;;11.20;99.90;;;;;;5069201;28;20469;-56
2022/11/12 12:53:46;;;;;;;10.95;6.75;;;11.20;99.90;;;;;;5068911;28;20111;-56
2022/11/12 12:56:12;;;;;;;10.65;7.00;;;11.20;99.90;;;;;;5069047;28;20112;-56
2022/11/12 12:58:47;;;;;;;9.15;6.93;;;11.10;99.90;;;;;;5068975;28;20037;-53
2022/11/12 13:01:21;;;;;;;9.05;6.35;;;11.10;99.90;;;;;;5068672;28;20507;-54
2022/11/12 13:03:59;;;;;;;8.07;6.10;;;11.10;99.90;;;;;;5065479;28;20028;-57
2022/11/12 13:06:50;;;;;;;9.20;6.70;;;11.10;99.90;;;;;;5062398;28;20032;-57
2022/11/12 13:09:15;;;;;;;8.32;6.90;;;11.10;99.90;;;;;;5059468;28;20523;-57